Sea Successc\ — VRS4325 — position and weather

sailwx.info

Track history (hours):
 
Tides and Currents Weather Stations Pressure Air Temp Water Temp Dewpoint Dewpoint Depression Visibility Wind Speed Wind Dir Waves Ship Positions

Sea Successc\

Last reported at 2016-Jun-26 05:33 UTC. Time now 2016-Jun-26 06:31 UTC.
Position N 22°17' E 114°10'.

Length 27 m.

Type: Ship. MMSI: 477995071.

Date/timePositionNaut miles runAvg speedWind from/ knotsBaromVisibWave heightAir tempDewpointWater temp
2016-Jun-26 05:33N 22°17' E 114°10'5 3.8
2016-Jun-26 04:19N 22°17' E 114°05'5 6.2
2016-Jun-26 03:34N 22°17' E 114°09'3 2.6
2016-Jun-26 02:33N 22°17' E 114°07'3 2.6
2016-Jun-26 01:34N 22°18' E 114°09'0 0.0
2016-Jun-26 00:34N 22°18' E 114°09'1 1.0
2016-Jun-25 23:33N 22°19' E 114°09'4 0.4
2016-Jun-25 13:31N 22°17' E 114°06'4 2.7
2016-Jun-25 12:04N 22°16' E 114°02'714.3
2016-Jun-25 11:34N 22°17' E 114°09'3 2.9
2016-Jun-25 10:31N 22°17' E 114°06'3 3.3
2016-Jun-25 09:33N 22°17' E 114°10'3 1.7
2016-Jun-25 08:03N 22°17' E 114°07'2 3.7
2016-Jun-25 07:33N 22°18' E 114°09'1 0.7
2016-Jun-25 06:34N 22°18' E 114°09'0 0.3
2016-Jun-25 05:33N 22°17' E 114°10'7 2.8
2016-Jun-25 03:09N 22°17' E 114°02'711.5
2016-Jun-25 02:33N 22°17' E 114°10'7 5.5
2016-Jun-25 01:17N 22°16' E 114°02'7 4.1
2016-Jun-24 23:33N 22°17' E 114°10'2 2.4
2016-Jun-24 22:33N 22°17' E 114°07'2 0.2
2016-Jun-24 13:33N 22°17' E 114°05'4 2.2
2016-Jun-24 11:33N 22°17' E 114°10'4 2.9
2016-Jun-24 10:15N 22°17' E 114°05'4 6.0
2016-Jun-24 09:33N 22°17' E 114°10'1 1.5
2016-Jun-24 08:33N 22°19' E 114°09'7 1.2
2016-Jun-24 03:08N 22°17' E 114°02'711.9
2016-Jun-24 02:33N 22°17' E 114°10'4 3.2
2016-Jun-24 01:10N 22°17' E 114°05'4 2.8
2016-Jun-23 23:33N 22°17' E 114°10'4 4.0
2016-Jun-23 22:29N 22°17' E 114°05'0 0.0
2016-Jun-23 13:31N 22°17' E 114°05'4 2.1
2016-Jun-23 11:33N 22°17' E 114°10'7 7.0
2016-Jun-23 10:32N 22°17' E 114°02'7 7.5
2016-Jun-23 09:33N 22°17' E 114°10'1 0.7
2016-Jun-23 08:33N 22°18' E 114°09'1 0.2
2016-Jun-23 05:33N 22°17' E 114°10'0 0.0
2016-Jun-23 02:33N 22°17' E 114°10'3 2.5
2016-Jun-23 01:10N 22°17' E 114°06'3 2.1
2016-Jun-22 23:33N 22°17' E 114°10'2 2.1
2016-Jun-22 22:32N 22°17' E 114°07'0 0.0
2016-Jun-22 13:24N 22°17' E 114°08'2 1.0
2016-Jun-22 11:33N 22°17' E 114°10'1 0.9
2016-Jun-22 10:32N 22°18' E 114°09'1 0.5
2016-Jun-22 08:33N 22°17' E 114°10'0 0.0
2016-Jun-22 05:33N 22°17' E 114°10'0 0.0
2016-Jun-22 02:33N 22°17' E 114°10'4 3.1
2016-Jun-22 01:10N 22°17' E 114°05'4 2.7
2016-Jun-21 23:33N 22°17' E 114°10'3 2.3
2016-Jun-21 22:19N 22°17' E 114°07'0 0.1
2016-Jun-21 13:29N 22°17' E 114°06'3 1.7
2016-Jun-21 11:33N 22°17' E 114°10'4 2.9
2016-Jun-21 10:15N 22°17' E 114°06'3 4.7
2016-Jun-21 09:32N 22°18' E 114°09'0 0.2
2016-Jun-21 08:33N 22°18' E 114°09'0 0.1
2016-Jun-21 05:33N 22°17' E 114°10'4 1.6
2016-Jun-21 03:03N 22°17' E 114°05'4 8.1
2016-Jun-21 02:33N 22°17' E 114°10'3 2.4
2016-Jun-21 01:09N 22°17' E 114°06'3 2.2
2016-Jun-20 23:33N 22°17' E 114°10'3 2.8
2016-Jun-20 22:33N 22°17' E 114°07'1 0.1
2016-Jun-20 13:31N 22°17' E 114°05'4 2.1
2016-Jun-20 11:33N 22°17' E 114°10'3 2.6
2016-Jun-20 10:14N 22°17' E 114°06'4 5.3
2016-Jun-20 09:34N 22°17' E 114°10'1 0.9
2016-Jun-20 08:33N 22°18' E 114°09'1 0.3
2016-Jun-20 05:33N 22°17' E 114°10'0 0.0
2016-Jun-20 02:33N 22°17' E 114°10'8 6.2
2016-Jun-20 01:20N 22°16' E 114°02'8 4.3
2016-Jun-19 23:33N 22°17' E 114°10'4 3.6
2016-Jun-19 22:22N 22°17' E 114°05'3 0.3
2016-Jun-19 13:33N 22°18' E 114°08'1 1.3
2016-Jun-19 12:32N 22°17' E 114°07'3 1.3
2016-Jun-19 10:33N 22°17' E 114°10'3 1.9
2016-Jun-19 09:12N 22°17' E 114°07'3 4.2
2016-Jun-19 08:33N 22°17' E 114°10'1 0.2
2016-Jun-19 05:33N 22°17' E 114°10'3 2.1
2016-Jun-19 04:12N 22°17' E 114°07'1 1.3
2016-Jun-19 03:33N 22°18' E 114°08'1 1.5
2016-Jun-19 02:33N 22°17' E 114°07'3 2.7
2016-Jun-19 01:33N 22°18' E 114°09'0 0.0
2016-Jun-19 00:33N 22°18' E 114°09'1 1.0
2016-Jun-18 23:33N 22°19' E 114°09'3 0.3
2016-Jun-18 13:28N 22°17' E 114°07'3 1.3
2016-Jun-18 11:34N 22°17' E 114°09'3 2.3
2016-Jun-18 10:13N 22°17' E 114°06'3 1.9
2016-Jun-18 08:33N 22°17' E 114°10'0 0.0
2016-Jun-18 05:33N 22°17' E 114°10'0 0.0
2016-Jun-18 02:33N 22°17' E 114°10'5 3.4
2016-Jun-18 01:11N 22°17' E 114°05'5 7.4
2016-Jun-18 00:33N 22°18' E 114°09'1 1.0
2016-Jun-17 23:34N 22°17' E 114°10'3 2.5
2016-Jun-17 22:22N 22°17' E 114°06'1 0.1
2016-Jun-17 13:31N 22°17' E 114°06'4 1.9
2016-Jun-17 11:34N 22°17' E 114°10'4 2.8
2016-Jun-17 10:15N 22°17' E 114°06'4 2.2
2016-Jun-17 08:33N 22°17' E 114°10'6 2.3
2016-Jun-17 06:05N 22°17' E 114°03'610.9
2016-Jun-17 05:33N 22°17' E 114°10'0 0.0
2016-Jun-17 02:33N 22°17' E 114°10'4 2.6
2016-Jun-17 01:11N 22°17' E 114°06'4 2.2
2016-Jun-16 23:32N 22°17' E 114°10'2 2.4
2016-Jun-16 22:33N 22°17' E 114°07'0 0.0
2016-Jun-16 13:26N 22°17' E 114°07'2 1.3
2016-Jun-16 11:33N 22°17' E 114°10'3 2.1
2016-Jun-16 10:14N 22°17' E 114°06'3 4.3
2016-Jun-16 09:34N 22°17' E 114°10'1 1.0
2016-Jun-16 08:33N 22°18' E 114°09'1 0.3
2016-Jun-16 05:33N 22°17' E 114°10'  
Track history (hours):
 
Tides and Currents Weather Stations Pressure Air Temp Water Temp Dewpoint Dewpoint Depression Visibility Wind Speed Wind Dir Waves Ship Positions

Sea Successc\

Last reported at 2016-Jun-26 05:33 UTC. Time now 2016-Jun-26 06:31 UTC.
Position N 22°17' E 114°10'.

Length 27 m.

Type: Ship. MMSI: 477995071.

Date/timePositionNaut miles runAvg speedWind from/ knotsBaromVisibWave heightAir tempDewpointWater temp
2016-Jun-26 05:33N 22°17' E 114°10'5 3.8
2016-Jun-26 04:19N 22°17' E 114°05'5 6.2
2016-Jun-26 03:34N 22°17' E 114°09'3 2.6
2016-Jun-26 02:33N 22°17' E 114°07'3 2.6
2016-Jun-26 01:34N 22°18' E 114°09'0 0.0
2016-Jun-26 00:34N 22°18' E 114°09'1 1.0
2016-Jun-25 23:33N 22°19' E 114°09'4 0.4
2016-Jun-25 13:31N 22°17' E 114°06'4 2.7
2016-Jun-25 12:04N 22°16' E 114°02'714.3
2016-Jun-25 11:34N 22°17' E 114°09'3 2.9
2016-Jun-25 10:31N 22°17' E 114°06'3 3.3
2016-Jun-25 09:33N 22°17' E 114°10'3 1.7
2016-Jun-25 08:03N 22°17' E 114°07'2 3.7
2016-Jun-25 07:33N 22°18' E 114°09'1 0.7
2016-Jun-25 06:34N 22°18' E 114°09'0 0.3
2016-Jun-25 05:33N 22°17' E 114°10'7 2.8
2016-Jun-25 03:09N 22°17' E 114°02'711.5
2016-Jun-25 02:33N 22°17' E 114°10'7 5.5
2016-Jun-25 01:17N 22°16' E 114°02'7 4.1
2016-Jun-24 23:33N 22°17' E 114°10'2 2.4
2016-Jun-24 22:33N 22°17' E 114°07'2 0.2
2016-Jun-24 13:33N 22°17' E 114°05'4 2.2
2016-Jun-24 11:33N 22°17' E 114°10'4 2.9
2016-Jun-24 10:15N 22°17' E 114°05'4 6.0
2016-Jun-24 09:33N 22°17' E 114°10'1 1.5
2016-Jun-24 08:33N 22°19' E 114°09'7 1.2
2016-Jun-24 03:08N 22°17' E 114°02'711.9
2016-Jun-24 02:33N 22°17' E 114°10'4 3.2
2016-Jun-24 01:10N 22°17' E 114°05'4 2.8
2016-Jun-23 23:33N 22°17' E 114°10'4 4.0
2016-Jun-23 22:29N 22°17' E 114°05'0 0.0
2016-Jun-23 13:31N 22°17' E 114°05'4 2.1
2016-Jun-23 11:33N 22°17' E 114°10'7 7.0
2016-Jun-23 10:32N 22°17' E 114°02'7 7.5
2016-Jun-23 09:33N 22°17' E 114°10'1 0.7
2016-Jun-23 08:33N 22°18' E 114°09'1 0.2
2016-Jun-23 05:33N 22°17' E 114°10'0 0.0
2016-Jun-23 02:33N 22°17' E 114°10'3 2.5
2016-Jun-23 01:10N 22°17' E 114°06'3 2.1
2016-Jun-22 23:33N 22°17' E 114°10'2 2.1
2016-Jun-22 22:32N 22°17' E 114°07'0 0.0
2016-Jun-22 13:24N 22°17' E 114°08'2 1.0
2016-Jun-22 11:33N 22°17' E 114°10'1 0.9
2016-Jun-22 10:32N 22°18' E 114°09'1 0.5
2016-Jun-22 08:33N 22°17' E 114°10'0 0.0
2016-Jun-22 05:33N 22°17' E 114°10'0 0.0
2016-Jun-22 02:33N 22°17' E 114°10'4 3.1
2016-Jun-22 01:10N 22°17' E 114°05'4 2.7
2016-Jun-21 23:33N 22°17' E 114°10'3 2.3
2016-Jun-21 22:19N 22°17' E 114°07'0 0.1
2016-Jun-21 13:29N 22°17' E 114°06'3 1.7
2016-Jun-21 11:33N 22°17' E 114°10'4 2.9
2016-Jun-21 10:15N 22°17' E 114°06'3 4.7
2016-Jun-21 09:32N 22°18' E 114°09'0 0.2
2016-Jun-21 08:33N 22°18' E 114°09'0 0.1
2016-Jun-21 05:33N 22°17' E 114°10'4 1.6
2016-Jun-21 03:03N 22°17' E 114°05'4 8.1
2016-Jun-21 02:33N 22°17' E 114°10'3 2.4
2016-Jun-21 01:09N 22°17' E 114°06'3 2.2
2016-Jun-20 23:33N 22°17' E 114°10'3 2.8
2016-Jun-20 22:33N 22°17' E 114°07'1 0.1
2016-Jun-20 13:31N 22°17' E 114°05'4 2.1
2016-Jun-20 11:33N 22°17' E 114°10'3 2.6
2016-Jun-20 10:14N 22°17' E 114°06'4 5.3
2016-Jun-20 09:34N 22°17' E 114°10'1 0.9
2016-Jun-20 08:33N 22°18' E 114°09'1 0.3
2016-Jun-20 05:33N 22°17' E 114°10'0 0.0
2016-Jun-20 02:33N 22°17' E 114°10'8 6.2
2016-Jun-20 01:20N 22°16' E 114°02'8 4.3
2016-Jun-19 23:33N 22°17' E 114°10'4 3.6
2016-Jun-19 22:22N 22°17' E 114°05'3 0.3
2016-Jun-19 13:33N 22°18' E 114°08'1 1.3
2016-Jun-19 12:32N 22°17' E 114°07'3 1.3
2016-Jun-19 10:33N 22°17' E 114°10'3 1.9
2016-Jun-19 09:12N 22°17' E 114°07'3 4.2
2016-Jun-19 08:33N 22°17' E 114°10'1 0.2
2016-Jun-19 05:33N 22°17' E 114°10'3 2.1
2016-Jun-19 04:12N 22°17' E 114°07'1 1.3
2016-Jun-19 03:33N 22°18' E 114°08'1 1.5
2016-Jun-19 02:33N 22°17' E 114°07'3 2.7
2016-Jun-19 01:33N 22°18' E 114°09'0 0.0
2016-Jun-19 00:33N 22°18' E 114°09'1 1.0
2016-Jun-18 23:33N 22°19' E 114°09'3 0.3
2016-Jun-18 13:28N 22°17' E 114°07'3 1.3
2016-Jun-18 11:34N 22°17' E 114°09'3 2.3
2016-Jun-18 10:13N 22°17' E 114°06'3 1.9
2016-Jun-18 08:33N 22°17' E 114°10'0 0.0
2016-Jun-18 05:33N 22°17' E 114°10'0 0.0
2016-Jun-18 02:33N 22°17' E 114°10'5 3.4
2016-Jun-18 01:11N 22°17' E 114°05'5 7.4
2016-Jun-18 00:33N 22°18' E 114°09'1 1.0
2016-Jun-17 23:34N 22°17' E 114°10'3 2.5
2016-Jun-17 22:22N 22°17' E 114°06'1 0.1
2016-Jun-17 13:31N 22°17' E 114°06'4 1.9
2016-Jun-17 11:34N 22°17' E 114°10'4 2.8
2016-Jun-17 10:15N 22°17' E 114°06'4 2.2
2016-Jun-17 08:33N 22°17' E 114°10'6 2.3
2016-Jun-17 06:05N 22°17' E 114°03'610.9
2016-Jun-17 05:33N 22°17' E 114°10'0 0.0
2016-Jun-17 02:33N 22°17' E 114°10'4 2.6
2016-Jun-17 01:11N 22°17' E 114°06'4 2.2
2016-Jun-16 23:32N 22°17' E 114°10'2 2.4
2016-Jun-16 22:33N 22°17' E 114°07'0 0.0
2016-Jun-16 13:26N 22°17' E 114°07'2 1.3
2016-Jun-16 11:33N 22°17' E 114°10'3 2.1
2016-Jun-16 10:14N 22°17' E 114°06'3 4.3
2016-Jun-16 09:34N 22°17' E 114°10'1 1.0
2016-Jun-16 08:33N 22°18' E 114°09'1 0.3
2016-Jun-16 05:33N 22°17' E 114°10'  

Dump ship's entire track history